sensor_id;sensor_type;location;lat;lon;timestamp;P1;durP1;ratioP1;P2;durP2;ratioP2
72728;SDS011;60843;52.062;4.508;2023-11-21T00:00:23;27.27;;;10.30;;
72728;SDS011;60843;52.062;4.508;2023-11-21T00:02:49;19.00;;;7.72;;
72728;SDS011;60843;52.062;4.508;2023-11-21T00:05:14;15.05;;;6.97;;
72728;SDS011;60843;52.062;4.508;2023-11-21T00:07:41;9.80;;;4.80;;
72728;SDS011;60843;52.062;4.508;2023-11-21T00:10:07;12.73;;;5.55;;
72728;SDS011;60843;52.062;4.508;2023-11-21T00:12:35;10.98;;;5.18;;
72728;SDS011;60843;52.062;4.508;2023-11-21T00:15:02;11.98;;;5.38;;
72728;SDS011;60843;52.062;4.508;2023-11-21T00:17:28;11.02;;;5.22;;
72728;SDS011;60843;52.062;4.508;2023-11-21T00:19:53;12.93;;;5.05;;
72728;SDS011;60843;52.062;4.508;2023-11-21T00:22:21;14.88;;;4.80;;
72728;SDS011;60843;52.062;4.508;2023-11-21T00:24:47;11.23;;;3.95;;
72728;SDS011;60843;52.062;4.508;2023-11-21T00:27:13;8.57;;;4.13;;
72728;SDS011;60843;52.062;4.508;2023-11-21T00:29:39;9.93;;;4.55;;
72728;SDS011;60843;52.062;4.508;2023-11-21T00:32:05;14.00;;;4.32;;
72728;SDS011;60843;52.062;4.508;2023-11-21T00:34:31;12.40;;;4.85;;
72728;SDS011;60843;52.062;4.508;2023-11-21T00:37:00;10.63;;;4.28;;
72728;SDS011;60843;52.062;4.508;2023-11-21T00:39:29;16.88;;;4.63;;
72728;SDS011;60843;52.062;4.508;2023-11-21T00:41:55;14.05;;;4.65;;
72728;SDS011;60843;52.062;4.508;2023-11-21T00:44:20;10.05;;;4.40;;
72728;SDS011;60843;52.062;4.508;2023-11-21T00:46:46;13.10;;;4.75;;
72728;SDS011;60843;52.062;4.508;2023-11-21T00:49:12;8.65;;;4.22;;
72728;SDS011;60843;52.062;4.508;2023-11-21T00:51:38;11.32;;;3.90;;
72728;SDS011;60843;52.062;4.508;2023-11-21T00:54:04;15.00;;;3.65;;
72728;SDS011;60843;52.062;4.508;2023-11-21T00:56:30;9.10;;;4.10;;
72728;SDS011;60843;52.062;4.508;2023-11-21T00:58:55;9.80;;;4.45;;
72728;SDS011;60843;52.062;4.508;2023-11-21T01:01:21;9.35;;;4.20;;
72728;SDS011;60843;52.062;4.508;2023-11-21T01:03:49;10.57;;;3.88;;
72728;SDS011;60843;52.062;4.508;2023-11-21T01:06:15;9.95;;;4.43;;
72728;SDS011;60843;52.062;4.508;2023-11-21T01:08:41;8.50;;;4.07;;
72728;SDS011;60843;52.062;4.508;2023-11-21T01:11:06;26.10;;;8.75;;
72728;SDS011;60843;52.062;4.508;2023-11-21T01:13:37;11.32;;;4.30;;
72728;SDS011;60843;52.062;4.508;2023-11-21T01:16:05;12.82;;;4.68;;
72728;SDS011;60843;52.062;4.508;2023-11-21T01:18:32;10.45;;;3.70;;
72728;SDS011;60843;52.062;4.508;2023-11-21T01:20:57;7.38;;;3.53;;
72728;SDS011;60843;52.062;4.508;2023-11-21T01:23:25;9.27;;;3.95;;
72728;SDS011;60843;52.062;4.508;2023-11-21T01:25:52;9.10;;;3.75;;
72728;SDS011;60843;52.062;4.508;2023-11-21T01:28:18;7.68;;;3.92;;
72728;SDS011;60843;52.062;4.508;2023-11-21T01:30:44;10.80;;;3.83;;
72728;SDS011;60843;52.062;4.508;2023-11-21T01:33:11;12.60;;;4.20;;
72728;SDS011;60843;52.062;4.508;2023-11-21T01:35:36;9.50;;;4.22;;
72728;SDS011;60843;52.062;4.508;2023-11-21T01:38:02;11.02;;;4.32;;
72728;SDS011;60843;52.062;4.508;2023-11-21T01:40:29;9.23;;;3.75;;
72728;SDS011;60843;52.062;4.508;2023-11-21T01:42:55;10.25;;;3.58;;
72728;SDS011;60843;52.062;4.508;2023-11-21T01:45:25;8.45;;;3.35;;
72728;SDS011;60843;52.062;4.508;2023-11-21T01:47:51;9.98;;;4.20;;
72728;SDS011;60843;52.062;4.508;2023-11-21T01:50:16;11.82;;;3.55;;
72728;SDS011;60843;52.062;4.508;2023-11-21T01:52:43;9.43;;;4.20;;
72728;SDS011;60843;52.062;4.508;2023-11-21T01:55:10;14.27;;;3.65;;
72728;SDS011;60843;52.062;4.508;2023-11-21T01:57:37;9.60;;;3.50;;
72728;SDS011;60843;52.062;4.508;2023-11-21T02:00:03;8.88;;;4.15;;
72728;SDS011;60843;52.062;4.508;2023-11-21T02:02:47;10.07;;;3.80;;
72728;SDS011;60843;52.062;4.508;2023-11-21T02:05:14;12.02;;;3.53;;
72728;SDS011;60843;52.062;4.508;2023-11-21T02:07:40;9.07;;;3.70;;
72728;SDS011;60843;52.062;4.508;2023-11-21T02:10:07;7.10;;;3.00;;
72728;SDS011;60843;52.062;4.508;2023-11-21T02:12:34;11.75;;;3.38;;
72728;SDS011;60843;52.062;4.508;2023-11-21T02:15:04;8.60;;;3.13;;
72728;SDS011;60843;52.062;4.508;2023-11-21T02:17:34;9.18;;;3.60;;
72728;SDS011;60843;52.062;4.508;2023-11-21T02:20:01;9.75;;;3.35;;
72728;SDS011;60843;52.062;4.508;2023-11-21T02:22:30;6.75;;;3.72;;
72728;SDS011;60843;52.062;4.508;2023-11-21T02:24:57;8.32;;;3.28;;
72728;SDS011;60843;52.062;4.508;2023-11-21T02:27:23;12.07;;;3.50;;
72728;SDS011;60843;52.062;4.508;2023-11-21T02:29:49;10.73;;;3.28;;
72728;SDS011;60843;52.062;4.508;2023-11-21T02:32:15;11.70;;;3.42;;
72728;SDS011;60843;52.062;4.508;2023-11-21T02:34:42;9.82;;;3.28;;
72728;SDS011;60843;52.062;4.508;2023-11-21T02:37:08;10.25;;;3.25;;
72728;SDS011;60843;52.062;4.508;2023-11-21T02:39:34;12.75;;;3.50;;
72728;SDS011;60843;52.062;4.508;2023-11-21T02:41:59;9.32;;;3.45;;
72728;SDS011;60843;52.062;4.508;2023-11-21T02:44:24;12.43;;;3.60;;
72728;SDS011;60843;52.062;4.508;2023-11-21T02:46:51;10.52;;;3.20;;
72728;SDS011;60843;52.062;4.508;2023-11-21T02:49:16;10.10;;;3.10;;
72728;SDS011;60843;52.062;4.508;2023-11-21T02:51:42;8.50;;;2.78;;
72728;SDS011;60843;52.062;4.508;2023-11-21T02:54:07;8.50;;;3.60;;
72728;SDS011;60843;52.062;4.508;2023-11-21T02:56:33;8.40;;;2.83;;
72728;SDS011;60843;52.062;4.508;2023-11-21T02:58:59;9.68;;;3.67;;
72728;SDS011;60843;52.062;4.508;2023-11-21T03:01:25;8.93;;;3.30;;
72728;SDS011;60843;52.062;4.508;2023-11-21T03:03:51;10.27;;;3.13;;
72728;SDS011;60843;52.062;4.508;2023-11-21T03:06:17;8.95;;;4.03;;
72728;SDS011;60843;52.062;4.508;2023-11-21T03:08:43;8.73;;;3.42;;
72728;SDS011;60843;52.062;4.508;2023-11-21T03:11:08;10.97;;;3.40;;
72728;SDS011;60843;52.062;4.508;2023-11-21T03:13:34;9.65;;;3.60;;
72728;SDS011;60843;52.062;4.508;2023-11-21T03:15:59;9.40;;;3.90;;
72728;SDS011;60843;52.062;4.508;2023-11-21T03:18:25;11.65;;;3.03;;
72728;SDS011;60843;52.062;4.508;2023-11-21T03:20:52;6.35;;;2.97;;
72728;SDS011;60843;52.062;4.508;2023-11-21T03:23:18;11.40;;;3.63;;
72728;SDS011;60843;52.062;4.508;2023-11-21T03:25:43;8.07;;;3.28;;
72728;SDS011;60843;52.062;4.508;2023-11-21T03:28:09;9.07;;;3.33;;
72728;SDS011;60843;52.062;4.508;2023-11-21T03:30:34;12.23;;;3.45;;
72728;SDS011;60843;52.062;4.508;2023-11-21T03:33:00;9.73;;;3.47;;
72728;SDS011;60843;52.062;4.508;2023-11-21T03:35:25;9.23;;;3.20;;
72728;SDS011;60843;52.062;4.508;2023-11-21T03:37:51;11.43;;;3.15;;
72728;SDS011;60843;52.062;4.508;2023-11-21T03:40:16;9.50;;;3.65;;
72728;SDS011;60843;52.062;4.508;2023-11-21T03:42:42;9.03;;;3.47;;
72728;SDS011;60843;52.062;4.508;2023-11-21T03:45:07;9.57;;;3.42;;
72728;SDS011;60843;52.062;4.508;2023-11-21T03:47:33;13.05;;;4.28;;
72728;SDS011;60843;52.062;4.508;2023-11-21T03:49:59;12.27;;;4.47;;
72728;SDS011;60843;52.062;4.508;2023-11-21T03:52:24;8.03;;;3.37;;
72728;SDS011;60843;52.062;4.508;2023-11-21T03:54:50;10.68;;;3.95;;
72728;SDS011;60843;52.062;4.508;2023-11-21T03:57:16;5.78;;;3.55;;
72728;SDS011;60843;52.062;4.508;2023-11-21T03:59:42;13.98;;;4.00;;
72728;SDS011;60843;52.062;4.508;2023-11-21T04:02:08;12.98;;;3.95;;
72728;SDS011;60843;52.062;4.508;2023-11-21T04:04:34;13.27;;;3.60;;
72728;SDS011;60843;52.062;4.508;2023-11-21T04:07:00;11.40;;;4.00;;
72728;SDS011;60843;52.062;4.508;2023-11-21T04:09:25;12.30;;;4.15;;
72728;SDS011;60843;52.062;4.508;2023-11-21T04:11:51;9.73;;;4.28;;
72728;SDS011;60843;52.062;4.508;2023-11-21T04:14:17;8.43;;;3.65;;
72728;SDS011;60843;52.062;4.508;2023-11-21T04:16:43;13.98;;;4.18;;
72728;SDS011;60843;52.062;4.508;2023-11-21T04:19:08;8.90;;;3.50;;
72728;SDS011;60843;52.062;4.508;2023-11-21T04:21:39;6.03;;;3.35;;
72728;SDS011;60843;52.062;4.508;2023-11-21T04:24:05;8.95;;;3.95;;
72728;SDS011;60843;52.062;4.508;2023-11-21T04:26:31;10.52;;;3.67;;
72728;SDS011;60843;52.062;4.508;2023-11-21T04:28:57;7.00;;;2.88;;
72728;SDS011;60843;52.062;4.508;2023-11-21T04:31:22;6.85;;;2.58;;
72728;SDS011;60843;52.062;4.508;2023-11-21T04:33:48;6.03;;;2.58;;
72728;SDS011;60843;52.062;4.508;2023-11-21T04:36:13;5.63;;;2.72;;
72728;SDS011;60843;52.062;4.508;2023-11-21T04:38:39;9.88;;;3.35;;
72728;SDS011;60843;52.062;4.508;2023-11-21T04:41:04;8.00;;;2.70;;
72728;SDS011;60843;52.062;4.508;2023-11-21T04:43:30;7.25;;;3.42;;
72728;SDS011;60843;52.062;4.508;2023-11-21T04:45:56;5.85;;;2.25;;
72728;SDS011;60843;52.062;4.508;2023-11-21T04:48:21;6.97;;;2.50;;
72728;SDS011;60843;52.062;4.508;2023-11-21T04:50:46;5.35;;;2.50;;
72728;SDS011;60843;52.062;4.508;2023-11-21T04:53:12;5.00;;;2.97;;
72728;SDS011;60843;52.062;4.508;2023-11-21T04:55:39;10.05;;;2.80;;
72728;SDS011;60843;52.062;4.508;2023-11-21T04:58:08;6.60;;;3.20;;
72728;SDS011;60843;52.062;4.508;2023-11-21T05:00:34;7.28;;;2.65;;
72728;SDS011;60843;52.062;4.508;2023-11-21T05:03:01;5.65;;;2.90;;
72728;SDS011;60843;52.062;4.508;2023-11-21T05:05:27;6.53;;;2.80;;
72728;SDS011;60843;52.062;4.508;2023-11-21T05:07:52;5.93;;;2.83;;
72728;SDS011;60843;52.062;4.508;2023-11-21T05:10:19;5.50;;;2.67;;
72728;SDS011;60843;52.062;4.508;2023-11-21T05:12:44;7.95;;;2.42;;
72728;SDS011;60843;52.062;4.508;2023-11-21T05:15:13;6.43;;;3.10;;
72728;SDS011;60843;52.062;4.508;2023-11-21T05:20:09;9.02;;;2.85;;
72728;SDS011;60843;52.062;4.508;2023-11-21T05:22:36;8.30;;;2.50;;
72728;SDS011;60843;52.062;4.508;2023-11-21T05:25:02;11.20;;;2.97;;
72728;SDS011;60843;52.062;4.508;2023-11-21T05:27:29;8.48;;;2.72;;
72728;SDS011;60843;52.062;4.508;2023-11-21T05:29:58;4.82;;;2.63;;
72728;SDS011;60843;52.062;4.508;2023-11-21T05:32:24;5.22;;;2.60;;
72728;SDS011;60843;52.062;4.508;2023-11-21T05:34:50;4.50;;;2.60;;
72728;SDS011;60843;52.062;4.508;2023-11-21T05:37:15;4.75;;;2.67;;
72728;SDS011;60843;52.062;4.508;2023-11-21T05:39:42;6.20;;;2.67;;
72728;SDS011;60843;52.062;4.508;2023-11-21T05:42:07;7.60;;;2.60;;
72728;SDS011;60843;52.062;4.508;2023-11-21T05:44:35;5.40;;;2.67;;
72728;SDS011;60843;52.062;4.508;2023-11-21T05:47:01;8.88;;;2.95;;
72728;SDS011;60843;52.062;4.508;2023-11-21T05:49:26;6.75;;;2.83;;
72728;SDS011;60843;52.062;4.508;2023-11-21T05:51:55;9.35;;;2.80;;
72728;SDS011;60843;52.062;4.508;2023-11-21T05:54:21;6.10;;;2.97;;
72728;SDS011;60843;52.062;4.508;2023-11-21T05:56:47;4.97;;;2.17;;
72728;SDS011;60843;52.062;4.508;2023-11-21T05:59:12;13.17;;;2.67;;
72728;SDS011;60843;52.062;4.508;2023-11-21T06:01:37;4.13;;;2.13;;
72728;SDS011;60843;52.062;4.508;2023-11-21T06:04:03;8.13;;;2.75;;
72728;SDS011;60843;52.062;4.508;2023-11-21T06:06:29;6.28;;;2.72;;
72728;SDS011;60843;52.062;4.508;2023-11-21T06:08:56;5.90;;;2.28;;
72728;SDS011;60843;52.062;4.508;2023-11-21T06:11:22;5.40;;;2.75;;
72728;SDS011;60843;52.062;4.508;2023-11-21T06:13:47;4.57;;;2.90;;
72728;SDS011;60843;52.062;4.508;2023-11-21T06:16:13;5.43;;;2.47;;
72728;SDS011;60843;52.062;4.508;2023-11-21T06:18:41;7.97;;;2.25;;
72728;SDS011;60843;52.062;4.508;2023-11-21T06:21:09;4.85;;;2.45;;
72728;SDS011;60843;52.062;4.508;2023-11-21T06:23:34;14.23;;;4.80;;
72728;SDS011;60843;52.062;4.508;2023-11-21T06:26:00;12.02;;;4.60;;
72728;SDS011;60843;52.062;4.508;2023-11-21T06:28:26;15.15;;;6.00;;
72728;SDS011;60843;52.062;4.508;2023-11-21T06:30:51;9.95;;;3.03;;
72728;SDS011;60843;52.062;4.508;2023-11-21T06:33:18;6.90;;;2.28;;
72728;SDS011;60843;52.062;4.508;2023-11-21T06:35:44;3.90;;;2.30;;
72728;SDS011;60843;52.062;4.508;2023-11-21T06:38:10;3.33;;;1.98;;
72728;SDS011;60843;52.062;4.508;2023-11-21T06:40:35;5.55;;;2.55;;
72728;SDS011;60843;52.062;4.508;2023-11-21T06:43:01;6.00;;;2.03;;
72728;SDS011;60843;52.062;4.508;2023-11-21T06:45:27;2.83;;;1.73;;
72728;SDS011;60843;52.062;4.508;2023-11-21T06:47:52;5.72;;;1.90;;
72728;SDS011;60843;52.062;4.508;2023-11-21T06:50:18;3.43;;;1.70;;
72728;SDS011;60843;52.062;4.508;2023-11-21T06:52:43;8.55;;;1.80;;
72728;SDS011;60843;52.062;4.508;2023-11-21T06:55:09;6.47;;;1.75;;
72728;SDS011;60843;52.062;4.508;2023-11-21T06:57:34;5.22;;;1.63;;
72728;SDS011;60843;52.062;4.508;2023-11-21T07:00:00;5.78;;;2.10;;
72728;SDS011;60843;52.062;4.508;2023-11-21T07:02:25;8.15;;;2.33;;
72728;SDS011;60843;52.062;4.508;2023-11-21T07:04:51;3.78;;;1.55;;
72728;SDS011;60843;52.062;4.508;2023-11-21T07:07:17;7.60;;;2.22;;
72728;SDS011;60843;52.062;4.508;2023-11-21T07:09:44;4.45;;;2.05;;
72728;SDS011;60843;52.062;4.508;2023-11-21T07:12:13;9.38;;;2.20;;
72728;SDS011;60843;52.062;4.508;2023-11-21T07:14:41;1.73;;;0.97;;
72728;SDS011;60843;52.062;4.508;2023-11-21T07:17:09;4.70;;;2.00;;
72728;SDS011;60843;52.062;4.508;2023-11-21T07:19:38;5.18;;;2.08;;
72728;SDS011;60843;52.062;4.508;2023-11-21T07:22:04;7.57;;;2.42;;
72728;SDS011;60843;52.062;4.508;2023-11-21T07:24:30;6.72;;;1.55;;
72728;SDS011;60843;52.062;4.508;2023-11-21T07:26:57;8.60;;;2.40;;
72728;SDS011;60843;52.062;4.508;2023-11-21T07:29:25;8.30;;;2.38;;
72728;SDS011;60843;52.062;4.508;2023-11-21T07:31:52;6.07;;;2.17;;
72728;SDS011;60843;52.062;4.508;2023-11-21T07:34:18;3.28;;;1.20;;
72728;SDS011;60843;52.062;4.508;2023-11-21T07:36:44;5.38;;;1.70;;
72728;SDS011;60843;52.062;4.508;2023-11-21T07:39:10;5.43;;;1.45;;
72728;SDS011;60843;52.062;4.508;2023-11-21T07:41:35;12.07;;;1.80;;
72728;SDS011;60843;52.062;4.508;2023-11-21T07:44:00;5.50;;;1.63;;
72728;SDS011;60843;52.062;4.508;2023-11-21T07:46:26;7.87;;;1.53;;
72728;SDS011;60843;52.062;4.508;2023-11-21T07:48:52;4.55;;;1.80;;
72728;SDS011;60843;52.062;4.508;2023-11-21T07:51:18;2.95;;;1.50;;
72728;SDS011;60843;52.062;4.508;2023-11-21T07:53:43;2.05;;;1.13;;
72728;SDS011;60843;52.062;4.508;2023-11-21T07:56:09;4.03;;;1.85;;
72728;SDS011;60843;52.062;4.508;2023-11-21T07:58:35;4.28;;;1.77;;
72728;SDS011;60843;52.062;4.508;2023-11-21T08:01:01;9.95;;;2.05;;
72728;SDS011;60843;52.062;4.508;2023-11-21T08:03:27;4.22;;;1.10;;
72728;SDS011;60843;52.062;4.508;2023-11-21T08:05:55;2.33;;;1.33;;
72728;SDS011;60843;52.062;4.508;2023-11-21T08:08:21;13.18;;;1.88;;
72728;SDS011;60843;52.062;4.508;2023-11-21T08:10:46;6.07;;;2.35;;
72728;SDS011;60843;52.062;4.508;2023-11-21T08:13:13;5.28;;;1.30;;
72728;SDS011;60843;52.062;4.508;2023-11-21T08:15:41;3.20;;;1.60;;
72728;SDS011;60843;52.062;4.508;2023-11-21T08:18:11;4.03;;;2.20;;
72728;SDS011;60843;52.062;4.508;2023-11-21T08:20:36;2.33;;;1.23;;
72728;SDS011;60843;52.062;4.508;2023-11-21T08:23:03;11.52;;;2.28;;
72728;SDS011;60843;52.062;4.508;2023-11-21T08:25:30;4.20;;;1.67;;
72728;SDS011;60843;52.062;4.508;2023-11-21T08:27:56;2.20;;;0.68;;
72728;SDS011;60843;52.062;4.508;2023-11-21T08:30:22;4.47;;;1.75;;
72728;SDS011;60843;52.062;4.508;2023-11-21T08:32:49;4.03;;;1.80;;
72728;SDS011;60843;52.062;4.508;2023-11-21T08:35:14;8.93;;;2.30;;
72728;SDS011;60843;52.062;4.508;2023-11-21T08:37:40;3.20;;;1.60;;
72728;SDS011;60843;52.062;4.508;2023-11-21T08:40:06;10.02;;;1.95;;
72728;SDS011;60843;52.062;4.508;2023-11-21T08:42:37;3.92;;;2.10;;
72728;SDS011;60843;52.062;4.508;2023-11-21T08:45:03;7.28;;;2.65;;
72728;SDS011;60843;52.062;4.508;2023-11-21T08:47:29;2.38;;;0.93;;
72728;SDS011;60843;52.062;4.508;2023-11-21T08:49:55;6.68;;;1.83;;
72728;SDS011;60843;52.062;4.508;2023-11-21T08:52:20;4.25;;;1.58;;
72728;SDS011;60843;52.062;4.508;2023-11-21T08:54:48;5.07;;;1.80;;
72728;SDS011;60843;52.062;4.508;2023-11-21T08:57:20;4.18;;;1.70;;
72728;SDS011;60843;52.062;4.508;2023-11-21T08:59:47;3.80;;;1.67;;
72728;SDS011;60843;52.062;4.508;2023-11-21T09:02:12;5.07;;;1.42;;
72728;SDS011;60843;52.062;4.508;2023-11-21T09:04:37;8.40;;;2.60;;
72728;SDS011;60843;52.062;4.508;2023-11-21T09:07:03;4.45;;;2.10;;
72728;SDS011;60843;52.062;4.508;2023-11-21T09:09:28;6.57;;;2.57;;
72728;SDS011;60843;52.062;4.508;2023-11-21T09:11:55;4.47;;;1.73;;
72728;SDS011;60843;52.062;4.508;2023-11-21T09:14:20;2.38;;;1.33;;
72728;SDS011;60843;52.062;4.508;2023-11-21T09:16:45;3.42;;;2.10;;
72728;SDS011;60843;52.062;4.508;2023-11-21T09:19:11;4.35;;;2.08;;
72728;SDS011;60843;52.062;4.508;2023-11-21T09:21:39;3.35;;;1.48;;
72728;SDS011;60843;52.062;4.508;2023-11-21T09:24:04;6.05;;;2.53;;
72728;SDS011;60843;52.062;4.508;2023-11-21T09:26:30;3.72;;;1.98;;
72728;SDS011;60843;52.062;4.508;2023-11-21T09:28:55;4.88;;;2.53;;
72728;SDS011;60843;52.062;4.508;2023-11-21T09:31:21;5.40;;;2.70;;
72728;SDS011;60843;52.062;4.508;2023-11-21T09:33:48;5.35;;;2.63;;
72728;SDS011;60843;52.062;4.508;2023-11-21T09:36:14;4.28;;;2.70;;
72728;SDS011;60843;52.062;4.508;2023-11-21T09:38:39;5.57;;;3.30;;
72728;SDS011;60843;52.062;4.508;2023-11-21T09:41:07;6.20;;;2.45;;
72728;SDS011;60843;52.062;4.508;2023-11-21T09:43:49;6.63;;;2.20;;
72728;SDS011;60843;52.062;4.508;2023-11-21T09:46:18;6.15;;;2.67;;
72728;SDS011;60843;52.062;4.508;2023-11-21T09:48:48;5.30;;;2.80;;
72728;SDS011;60843;52.062;4.508;2023-11-21T09:51:18;7.93;;;3.75;;
72728;SDS011;60843;52.062;4.508;2023-11-21T09:53:47;6.05;;;3.15;;
72728;SDS011;60843;52.062;4.508;2023-11-21T09:56:14;7.90;;;3.67;;
72728;SDS011;60843;52.062;4.508;2023-11-21T09:58:44;7.93;;;3.42;;
72728;SDS011;60843;52.062;4.508;2023-11-21T10:01:09;8.75;;;4.18;;
72728;SDS011;60843;52.062;4.508;2023-11-21T10:03:35;9.48;;;3.92;;
72728;SDS011;60843;52.062;4.508;2023-11-21T10:06:03;8.05;;;4.18;;
72728;SDS011;60843;52.062;4.508;2023-11-21T10:08:30;13.00;;;4.57;;
72728;SDS011;60843;52.062;4.508;2023-11-21T10:10:56;8.30;;;3.65;;
72728;SDS011;60843;52.062;4.508;2023-11-21T10:13:24;7.50;;;3.70;;
72728;SDS011;60843;52.062;4.508;2023-11-21T10:15:50;9.98;;;3.92;;
72728;SDS011;60843;52.062;4.508;2023-11-21T10:18:17;9.02;;;3.47;;
72728;SDS011;60843;52.062;4.508;2023-11-21T10:20:44;11.73;;;4.45;;
72728;SDS011;60843;52.062;4.508;2023-11-21T10:23:17;7.18;;;3.22;;
72728;SDS011;60843;52.062;4.508;2023-11-21T10:25:44;8.65;;;3.90;;
72728;SDS011;60843;52.062;4.508;2023-11-21T10:28:09;3.42;;;2.03;;
72728;SDS011;60843;52.062;4.508;2023-11-21T10:30:35;4.65;;;2.70;;
72728;SDS011;60843;52.062;4.508;2023-11-21T10:33:05;5.93;;;2.88;;
72728;SDS011;60843;52.062;4.508;2023-11-21T10:35:44;7.38;;;3.75;;
72728;SDS011;60843;52.062;4.508;2023-11-21T10:38:17;8.23;;;3.75;;
72728;SDS011;60843;52.062;4.508;2023-11-21T10:40:43;8.52;;;4.35;;
72728;SDS011;60843;52.062;4.508;2023-11-21T10:43:09;9.80;;;3.97;;
72728;SDS011;60843;52.062;4.508;2023-11-21T10:45:38;5.50;;;3.10;;
72728;SDS011;60843;52.062;4.508;2023-11-21T10:48:05;9.68;;;2.90;;
72728;SDS011;60843;52.062;4.508;2023-11-21T10:50:33;6.65;;;2.80;;
72728;SDS011;60843;52.062;4.508;2023-11-21T10:53:02;5.20;;;2.45;;
72728;SDS011;60843;52.062;4.508;2023-11-21T10:55:31;6.03;;;3.10;;
72728;SDS011;60843;52.062;4.508;2023-11-21T10:57:58;5.10;;;3.10;;
72728;SDS011;60843;52.062;4.508;2023-11-21T11:00:27;8.40;;;3.22;;
72728;SDS011;60843;52.062;4.508;2023-11-21T11:02:53;6.40;;;3.05;;
72728;SDS011;60843;52.062;4.508;2023-11-21T11:05:20;7.82;;;3.35;;
72728;SDS011;60843;52.062;4.508;2023-11-21T11:07:51;6.65;;;3.00;;
72728;SDS011;60843;52.062;4.508;2023-11-21T11:10:26;8.25;;;3.65;;
72728;SDS011;60843;52.062;4.508;2023-11-21T11:12:54;7.65;;;3.20;;
72728;SDS011;60843;52.062;4.508;2023-11-21T11:15:21;7.65;;;3.63;;
72728;SDS011;60843;52.062;4.508;2023-11-21T11:17:46;9.05;;;4.07;;
72728;SDS011;60843;52.062;4.508;2023-11-21T11:20:14;9.60;;;4.40;;
72728;SDS011;60843;52.062;4.508;2023-11-21T11:22:50;6.57;;;3.13;;
72728;SDS011;60843;52.062;4.508;2023-11-21T11:25:40;10.10;;;4.20;;
72728;SDS011;60843;52.062;4.508;2023-11-21T11:28:12;7.82;;;3.90;;
72728;SDS011;60843;52.062;4.508;2023-11-21T11:36:21;8.65;;;4.07;;
72728;SDS011;60843;52.062;4.508;2023-11-21T11:38:51;8.70;;;4.88;;
72728;SDS011;60843;52.062;4.508;2023-11-21T11:41:27;11.77;;;4.63;;
72728;SDS011;60843;52.062;4.508;2023-11-21T11:43:54;8.25;;;4.30;;
72728;SDS011;60843;52.062;4.508;2023-11-21T11:46:20;9.52;;;4.22;;
72728;SDS011;60843;52.062;4.508;2023-11-21T11:48:46;8.68;;;4.47;;
72728;SDS011;60843;52.062;4.508;2023-11-21T11:51:14;10.18;;;5.10;;
72728;SDS011;60843;52.062;4.508;2023-11-21T11:53:42;7.90;;;4.22;;
72728;SDS011;60843;52.062;4.508;2023-11-21T11:56:27;10.35;;;4.72;;
72728;SDS011;60843;52.062;4.508;2023-11-21T11:58:57;10.68;;;4.65;;
72728;SDS011;60843;52.062;4.508;2023-11-21T12:01:26;11.65;;;4.63;;
72728;SDS011;60843;52.062;4.508;2023-11-21T12:06:40;8.57;;;4.15;;
72728;SDS011;60843;52.062;4.508;2023-11-21T12:09:06;12.48;;;4.93;;
72728;SDS011;60843;52.062;4.508;2023-11-21T12:11:32;9.02;;;4.35;;
72728;SDS011;60843;52.062;4.508;2023-11-21T12:14:00;7.68;;;3.30;;
72728;SDS011;60843;52.062;4.508;2023-11-21T12:16:27;7.82;;;3.85;;
72728;SDS011;60843;52.062;4.508;2023-11-21T12:18:53;7.18;;;4.05;;
72728;SDS011;60843;52.062;4.508;2023-11-21T12:21:20;7.65;;;3.60;;
72728;SDS011;60843;52.062;4.508;2023-11-21T12:23:46;6.82;;;4.10;;
72728;SDS011;60843;52.062;4.508;2023-11-21T12:26:12;4.15;;;2.30;;
72728;SDS011;60843;52.062;4.508;2023-11-21T12:28:38;9.52;;;4.47;;
72728;SDS011;60843;52.062;4.508;2023-11-21T12:31:04;8.10;;;4.07;;
72728;SDS011;60843;52.062;4.508;2023-11-21T12:33:34;6.88;;;3.70;;
72728;SDS011;60843;52.062;4.508;2023-11-21T12:38:25;10.05;;;4.15;;
72728;SDS011;60843;52.062;4.508;2023-11-21T12:40:59;5.53;;;2.47;;
72728;SDS011;60843;52.062;4.508;2023-11-21T12:43:25;8.05;;;4.18;;
72728;SDS011;60843;52.062;4.508;2023-11-21T12:45:50;4.90;;;3.30;;
72728;SDS011;60843;52.062;4.508;2023-11-21T12:48:17;5.28;;;2.63;;
72728;SDS011;60843;52.062;4.508;2023-11-21T12:50:49;13.98;;;5.18;;
72728;SDS011;60843;52.062;4.508;2023-11-21T12:53:18;3.55;;;2.22;;
72728;SDS011;60843;52.062;4.508;2023-11-21T12:55:44;4.75;;;2.20;;
72728;SDS011;60843;52.062;4.508;2023-11-21T12:58:15;5.63;;;3.00;;
72728;SDS011;60843;52.062;4.508;2023-11-21T13:00:48;4.50;;;2.65;;
72728;SDS011;60843;52.062;4.508;2023-11-21T13:03:14;5.38;;;2.95;;
72728;SDS011;60843;52.062;4.508;2023-11-21T13:05:43;7.30;;;2.90;;
72728;SDS011;60843;52.062;4.508;2023-11-21T13:08:10;7.15;;;3.80;;
72728;SDS011;60843;52.062;4.508;2023-11-21T13:10:41;5.75;;;3.42;;
72728;SDS011;60843;52.062;4.508;2023-11-21T13:13:10;5.50;;;3.42;;
72728;SDS011;60843;52.062;4.508;2023-11-21T13:15:49;4.60;;;2.35;;
72728;SDS011;60843;52.062;4.508;2023-11-21T13:18:19;6.20;;;2.85;;
72728;SDS011;60843;52.062;4.508;2023-11-21T13:20:46;6.95;;;3.42;;
72728;SDS011;60843;52.062;4.508;2023-11-21T13:23:12;6.07;;;3.20;;
72728;SDS011;60843;52.062;4.508;2023-11-21T13:25:39;9.05;;;3.83;;
72728;SDS011;60843;52.062;4.508;2023-11-21T13:28:06;6.32;;;3.13;;
72728;SDS011;60843;52.062;4.508;2023-11-21T13:30:32;4.10;;;1.92;;
72728;SDS011;60843;52.062;4.508;2023-11-21T13:33:03;6.40;;;2.65;;
72728;SDS011;60843;52.062;4.508;2023-11-21T13:35:37;7.25;;;3.45;;
72728;SDS011;60843;52.062;4.508;2023-11-21T13:38:10;6.57;;;3.47;;
72728;SDS011;60843;52.062;4.508;2023-11-21T13:40:37;7.22;;;3.88;;
72728;SDS011;60843;52.062;4.508;2023-11-21T13:43:12;6.03;;;2.88;;
72728;SDS011;60843;52.062;4.508;2023-11-21T13:45:42;7.40;;;3.65;;
72728;SDS011;60843;52.062;4.508;2023-11-21T13:48:08;8.45;;;3.65;;
72728;SDS011;60843;52.062;4.508;2023-11-21T13:50:38;7.15;;;3.00;;
72728;SDS011;60843;52.062;4.508;2023-11-21T13:53:20;9.18;;;3.88;;
72728;SDS011;60843;52.062;4.508;2023-11-21T13:55:51;6.25;;;3.40;;
72728;SDS011;60843;52.062;4.508;2023-11-21T13:58:22;7.03;;;3.90;;
72728;SDS011;60843;52.062;4.508;2023-11-21T14:00:57;10.20;;;4.30;;
72728;SDS011;60843;52.062;4.508;2023-11-21T14:03:23;9.05;;;4.63;;
72728;SDS011;60843;52.062;4.508;2023-11-21T14:05:50;5.22;;;2.85;;
72728;SDS011;60843;52.062;4.508;2023-11-21T14:08:17;5.90;;;3.65;;
72728;SDS011;60843;52.062;4.508;2023-11-21T14:10:45;7.47;;;3.42;;
72728;SDS011;60843;52.062;4.508;2023-11-21T14:13:16;8.95;;;5.18;;
72728;SDS011;60843;52.062;4.508;2023-11-21T14:15:42;6.03;;;3.65;;
72728;SDS011;60843;52.062;4.508;2023-11-21T14:18:11;7.03;;;3.88;;
72728;SDS011;60843;52.062;4.508;2023-11-21T14:23:05;5.15;;;2.22;;
72728;SDS011;60843;52.062;4.508;2023-11-21T14:25:35;7.00;;;4.03;;
72728;SDS011;60843;52.062;4.508;2023-11-21T14:28:07;9.95;;;4.90;;
72728;SDS011;60843;52.062;4.508;2023-11-21T14:30:32;12.77;;;4.70;;
72728;SDS011;60843;52.062;4.508;2023-11-21T14:33:00;10.20;;;5.22;;
72728;SDS011;60843;52.062;4.508;2023-11-21T14:35:26;9.93;;;4.78;;
72728;SDS011;60843;52.062;4.508;2023-11-21T14:37:52;8.88;;;4.43;;
72728;SDS011;60843;52.062;4.508;2023-11-21T14:40:18;18.17;;;7.78;;
72728;SDS011;60843;52.062;4.508;2023-11-21T14:42:49;11.23;;;5.00;;
72728;SDS011;60843;52.062;4.508;2023-11-21T14:47:45;8.95;;;4.40;;
72728;SDS011;60843;52.062;4.508;2023-11-21T14:50:19;8.60;;;3.53;;
72728;SDS011;60843;52.062;4.508;2023-11-21T14:53:02;5.10;;;2.83;;
72728;SDS011;60843;52.062;4.508;2023-11-21T14:55:34;7.88;;;3.85;;
72728;SDS011;60843;52.062;4.508;2023-11-21T14:58:15;11.32;;;4.07;;
72728;SDS011;60843;52.062;4.508;2023-11-21T15:00:47;8.10;;;2.55;;
72728;SDS011;60843;52.062;4.508;2023-11-21T15:03:13;4.28;;;2.33;;